sensor_id;sensor_type;location;lat;lon;timestamp;pressure;altitude;pressure_sealevel;temperature;humidity
37972;BME280;23794;48.234;8.344;2023-04-26T00:00:10;94263.41;;;4.49;78.48
37972;BME280;23794;48.234;8.344;2023-04-26T00:02:37;94267.63;;;4.47;78.77
37972;BME280;23794;48.234;8.344;2023-04-26T00:05:04;94259.19;;;4.52;78.67
37972;BME280;23794;48.234;8.344;2023-04-26T00:07:32;94265.56;;;4.40;79.05
37972;BME280;23794;48.234;8.344;2023-04-26T00:09:59;94269.19;;;4.48;79.13
37972;BME280;23794;48.234;8.344;2023-04-26T00:12:26;94267.88;;;4.61;78.00
37972;BME280;23794;48.234;8.344;2023-04-26T00:14:53;94273.91;;;4.51;80.02
37972;BME280;23794;48.234;8.344;2023-04-26T00:17:19;94265.69;;;4.47;80.06
37972;BME280;23794;48.234;8.344;2023-04-26T00:19:46;94255.41;;;4.57;79.57
37972;BME280;23794;48.234;8.344;2023-04-26T00:22:12;94261.19;;;4.55;80.03
37972;BME280;23794;48.234;8.344;2023-04-26T00:24:39;94263.75;;;4.48;80.75
37972;BME280;23794;48.234;8.344;2023-04-26T00:27:05;94269.91;;;4.45;80.51
37972;BME280;23794;48.234;8.344;2023-04-26T00:29:36;94262.63;;;4.49;79.93
37972;BME280;23794;48.234;8.344;2023-04-26T00:32:03;94265.59;;;4.63;79.28
37972;BME280;23794;48.234;8.344;2023-04-26T00:34:34;94267.53;;;4.63;79.05
37972;BME280;23794;48.234;8.344;2023-04-26T00:37:01;94263.13;;;4.54;79.60
37972;BME280;23794;48.234;8.344;2023-04-26T00:39:28;94259.31;;;4.59;79.47
37972;BME280;23794;48.234;8.344;2023-04-26T00:41:55;94264.25;;;4.53;79.14
37972;BME280;23794;48.234;8.344;2023-04-26T00:44:22;94264.81;;;4.63;79.27
37972;BME280;23794;48.234;8.344;2023-04-26T00:46:51;94259.81;;;4.65;79.73
37972;BME280;23794;48.234;8.344;2023-04-26T00:49:21;94256.84;;;4.74;78.74
37972;BME280;23794;48.234;8.344;2023-04-26T00:51:49;94260.72;;;4.72;78.29
37972;BME280;23794;48.234;8.344;2023-04-26T00:54:18;94260.94;;;4.64;79.56
37972;BME280;23794;48.234;8.344;2023-04-26T00:56:45;94266.63;;;4.55;79.51
37972;BME280;23794;48.234;8.344;2023-04-26T00:59:12;94275.59;;;4.59;80.27
37972;BME280;23794;48.234;8.344;2023-04-26T01:01:38;94276.56;;;4.70;79.33
37972;BME280;23794;48.234;8.344;2023-04-26T01:04:07;94270.22;;;4.63;80.56
37972;BME280;23794;48.234;8.344;2023-04-26T01:06:34;94274.34;;;4.53;80.50
37972;BME280;23794;48.234;8.344;2023-04-26T01:09:03;94268.91;;;4.53;80.32
37972;BME280;23794;48.234;8.344;2023-04-26T01:11:32;94269.13;;;4.44;80.29
37972;BME280;23794;48.234;8.344;2023-04-26T01:14:01;94260.84;;;4.37;80.72
37972;BME280;23794;48.234;8.344;2023-04-26T01:16:28;94253.66;;;4.45;81.18
37972;BME280;23794;48.234;8.344;2023-04-26T01:18:55;94249.84;;;4.49;80.76
37972;BME280;23794;48.234;8.344;2023-04-26T01:21:23;94244.56;;;4.57;80.25
37972;BME280;23794;48.234;8.344;2023-04-26T01:23:51;94248.09;;;4.61;79.73
37972;BME280;23794;48.234;8.344;2023-04-26T01:26:18;94245.56;;;4.71;79.80
37972;BME280;23794;48.234;8.344;2023-04-26T01:28:45;94252.81;;;4.64;79.62
37972;BME280;23794;48.234;8.344;2023-04-26T01:31:14;94241.03;;;4.56;79.92
37972;BME280;23794;48.234;8.344;2023-04-26T01:33:41;94247.31;;;4.60;79.32
37972;BME280;23794;48.234;8.344;2023-04-26T01:36:08;94252.56;;;4.49;80.10
37972;BME280;23794;48.234;8.344;2023-04-26T01:38:38;94252.63;;;4.53;80.05
37972;BME280;23794;48.234;8.344;2023-04-26T01:41:04;94253.53;;;4.61;79.47
37972;BME280;23794;48.234;8.344;2023-04-26T01:43:31;94249.97;;;4.57;79.55
37972;BME280;23794;48.234;8.344;2023-04-26T01:45:57;94248.84;;;4.58;79.89
37972;BME280;23794;48.234;8.344;2023-04-26T01:48:27;94248.41;;;4.55;79.94
37972;BME280;23794;48.234;8.344;2023-04-26T01:50:54;94244.44;;;4.49;80.26
37972;BME280;23794;48.234;8.344;2023-04-26T01:53:21;94251.00;;;4.48;80.53
37972;BME280;23794;48.234;8.344;2023-04-26T01:55:47;94238.94;;;4.46;80.81
37972;BME280;23794;48.234;8.344;2023-04-26T01:58:14;94242.50;;;4.50;80.04
37972;BME280;23794;48.234;8.344;2023-04-26T02:00:40;94243.09;;;4.63;78.70
37972;BME280;23794;48.234;8.344;2023-04-26T02:03:07;94247.75;;;4.62;78.64
37972;BME280;23794;48.234;8.344;2023-04-26T02:05:33;94244.63;;;4.60;78.32
37972;BME280;23794;48.234;8.344;2023-04-26T02:08:04;94244.06;;;4.51;79.42
37972;BME280;23794;48.234;8.344;2023-04-26T02:10:31;94238.09;;;4.42;80.87
37972;BME280;23794;48.234;8.344;2023-04-26T02:12:57;94241.28;;;4.47;80.97
37972;BME280;23794;48.234;8.344;2023-04-26T02:15:24;94238.63;;;4.51;80.07
37972;BME280;23794;48.234;8.344;2023-04-26T02:17:51;94245.06;;;4.43;79.77
37972;BME280;23794;48.234;8.344;2023-04-26T02:20:19;94242.84;;;4.48;79.98
37972;BME280;23794;48.234;8.344;2023-04-26T02:22:46;94248.22;;;4.45;80.04
37972;BME280;23794;48.234;8.344;2023-04-26T02:25:13;94239.34;;;4.48;79.38
37972;BME280;23794;48.234;8.344;2023-04-26T02:27:41;94240.09;;;4.45;79.34
37972;BME280;23794;48.234;8.344;2023-04-26T02:30:07;94243.50;;;4.42;79.99
37972;BME280;23794;48.234;8.344;2023-04-26T02:32:34;94242.59;;;4.34;80.21
37972;BME280;23794;48.234;8.344;2023-04-26T02:35:02;94241.81;;;4.33;79.56
37972;BME280;23794;48.234;8.344;2023-04-26T02:37:28;94241.94;;;4.40;79.41
37972;BME280;23794;48.234;8.344;2023-04-26T02:39:56;94240.78;;;4.42;78.64
37972;BME280;23794;48.234;8.344;2023-04-26T02:42:23;94243.03;;;4.36;78.54
37972;BME280;23794;48.234;8.344;2023-04-26T02:44:50;94249.47;;;4.28;78.22
37972;BME280;23794;48.234;8.344;2023-04-26T02:47:17;94244.56;;;4.14;79.00
37972;BME280;23794;48.234;8.344;2023-04-26T02:49:44;94243.34;;;4.11;79.07
37972;BME280;23794;48.234;8.344;2023-04-26T02:52:11;94248.69;;;4.07;78.95
37972;BME280;23794;48.234;8.344;2023-04-26T02:54:37;94243.16;;;4.00;79.49
37972;BME280;23794;48.234;8.344;2023-04-26T02:57:04;94242.72;;;3.98;79.06
37972;BME280;23794;48.234;8.344;2023-04-26T02:59:30;94246.13;;;3.95;79.22
37972;BME280;23794;48.234;8.344;2023-04-26T03:01:57;94245.72;;;3.93;79.27
37972;BME280;23794;48.234;8.344;2023-04-26T03:04:24;94246.06;;;3.91;78.82
37972;BME280;23794;48.234;8.344;2023-04-26T03:06:51;94237.84;;;3.88;79.04
37972;BME280;23794;48.234;8.344;2023-04-26T03:09:17;94238.84;;;3.80;78.90
37972;BME280;23794;48.234;8.344;2023-04-26T03:11:44;94228.16;;;3.67;79.42
37972;BME280;23794;48.234;8.344;2023-04-26T03:14:12;94232.00;;;3.66;79.61
37972;BME280;23794;48.234;8.344;2023-04-26T03:16:43;94228.16;;;3.67;79.37
37972;BME280;23794;48.234;8.344;2023-04-26T03:19:09;94227.31;;;3.63;80.31
37972;BME280;23794;48.234;8.344;2023-04-26T03:21:37;94226.03;;;3.57;81.66
37972;BME280;23794;48.234;8.344;2023-04-26T03:24:04;94224.03;;;3.54;82.11
37972;BME280;23794;48.234;8.344;2023-04-26T03:26:32;94229.16;;;3.59;82.03
37972;BME280;23794;48.234;8.344;2023-04-26T03:28:58;94223.94;;;3.70;80.79
37972;BME280;23794;48.234;8.344;2023-04-26T03:31:25;94225.53;;;3.71;80.28
37972;BME280;23794;48.234;8.344;2023-04-26T03:33:52;94222.97;;;3.58;81.53
37972;BME280;23794;48.234;8.344;2023-04-26T03:36:19;94223.22;;;3.53;81.00
37972;BME280;23794;48.234;8.344;2023-04-26T03:38:46;94218.53;;;3.50;80.69
37972;BME280;23794;48.234;8.344;2023-04-26T03:41:13;94223.22;;;3.34;81.51
37972;BME280;23794;48.234;8.344;2023-04-26T03:43:40;94221.56;;;3.29;82.46
37972;BME280;23794;48.234;8.344;2023-04-26T03:46:06;94225.06;;;3.30;82.33
37972;BME280;23794;48.234;8.344;2023-04-26T03:48:33;94214.31;;;3.33;81.50
37972;BME280;23794;48.234;8.344;2023-04-26T03:51:00;94222.59;;;3.40;80.97
37972;BME280;23794;48.234;8.344;2023-04-26T03:53:27;94214.53;;;3.44;81.00
37972;BME280;23794;48.234;8.344;2023-04-26T03:55:54;94210.34;;;3.47;80.50
37972;BME280;23794;48.234;8.344;2023-04-26T03:58:21;94207.78;;;3.54;79.91
37972;BME280;23794;48.234;8.344;2023-04-26T04:00:48;94203.34;;;3.46;79.97
37972;BME280;23794;48.234;8.344;2023-04-26T04:03:15;94211.03;;;3.43;80.46
37972;BME280;23794;48.234;8.344;2023-04-26T04:05:42;94205.53;;;3.40;81.70
37972;BME280;23794;48.234;8.344;2023-04-26T04:08:09;94208.53;;;3.35;81.75
37972;BME280;23794;48.234;8.344;2023-04-26T04:10:36;94206.53;;;3.32;81.73
37972;BME280;23794;48.234;8.344;2023-04-26T04:13:03;94210.88;;;3.36;82.34
37972;BME280;23794;48.234;8.344;2023-04-26T04:15:29;94215.91;;;3.54;81.67
37972;BME280;23794;48.234;8.344;2023-04-26T04:17:56;94221.91;;;3.63;80.94
37972;BME280;23794;48.234;8.344;2023-04-26T04:20:23;94224.75;;;3.70;80.73
37972;BME280;23794;48.234;8.344;2023-04-26T04:22:53;94226.25;;;3.68;80.74
37972;BME280;23794;48.234;8.344;2023-04-26T04:25:19;94223.19;;;3.69;79.48
37972;BME280;23794;48.234;8.344;2023-04-26T04:27:48;94225.00;;;3.65;78.45
37972;BME280;23794;48.234;8.344;2023-04-26T04:30:15;94229.44;;;3.54;78.71
37972;BME280;23794;48.234;8.344;2023-04-26T04:32:43;94223.44;;;3.44;78.38
37972;BME280;23794;48.234;8.344;2023-04-26T04:35:12;94226.16;;;3.44;78.17
37972;BME280;23794;48.234;8.344;2023-04-26T04:37:42;94224.84;;;3.38;79.45
37972;BME280;23794;48.234;8.344;2023-04-26T04:40:10;94234.47;;;3.36;79.24
37972;BME280;23794;48.234;8.344;2023-04-26T04:42:41;94223.38;;;3.41;79.07
37972;BME280;23794;48.234;8.344;2023-04-26T04:45:10;94225.00;;;3.46;79.67
37972;BME280;23794;48.234;8.344;2023-04-26T04:47:38;94226.06;;;3.41;79.88
37972;BME280;23794;48.234;8.344;2023-04-26T04:50:05;94230.78;;;3.44;79.59
37972;BME280;23794;48.234;8.344;2023-04-26T04:52:33;94229.22;;;3.63;80.04
37972;BME280;23794;48.234;8.344;2023-04-26T04:54:59;94233.44;;;3.80;79.62
37972;BME280;23794;48.234;8.344;2023-04-26T04:57:26;94235.06;;;3.84;79.12
37972;BME280;23794;48.234;8.344;2023-04-26T04:59:53;94237.00;;;3.84;79.83
37972;BME280;23794;48.234;8.344;2023-04-26T05:02:20;94241.22;;;3.81;79.69
37972;BME280;23794;48.234;8.344;2023-04-26T05:04:47;94241.50;;;3.76;79.74
37972;BME280;23794;48.234;8.344;2023-04-26T05:07:15;94252.75;;;3.78;80.36
37972;BME280;23794;48.234;8.344;2023-04-26T05:09:43;94248.34;;;3.89;80.24
37972;BME280;23794;48.234;8.344;2023-04-26T05:12:11;94246.34;;;4.06;79.73
37972;BME280;23794;48.234;8.344;2023-04-26T05:14:39;94242.75;;;4.21;78.72
37972;BME280;23794;48.234;8.344;2023-04-26T05:17:07;94250.69;;;4.30;77.76
37972;BME280;23794;48.234;8.344;2023-04-26T05:19:34;94244.31;;;4.22;78.37
37972;BME280;23794;48.234;8.344;2023-04-26T05:22:02;94256.75;;;4.23;79.04
37972;BME280;23794;48.234;8.344;2023-04-26T05:24:29;94261.97;;;4.13;78.80
37972;BME280;23794;48.234;8.344;2023-04-26T05:26:58;94258.34;;;4.05;78.72
37972;BME280;23794;48.234;8.344;2023-04-26T05:29:45;94257.81;;;4.19;78.43
37972;BME280;23794;48.234;8.344;2023-04-26T05:32:30;94259.88;;;4.26;78.45
37972;BME280;23794;48.234;8.344;2023-04-26T05:35:15;94258.00;;;4.49;78.43
37972;BME280;23794;48.234;8.344;2023-04-26T05:37:41;94262.94;;;4.44;78.42
37972;BME280;23794;48.234;8.344;2023-04-26T05:40:11;94258.41;;;4.51;77.85
37972;BME280;23794;48.234;8.344;2023-04-26T05:42:38;94254.25;;;4.58;78.09
37972;BME280;23794;48.234;8.344;2023-04-26T05:45:06;94266.13;;;4.72;78.13
37972;BME280;23794;48.234;8.344;2023-04-26T05:47:33;94266.75;;;4.85;77.75
37972;BME280;23794;48.234;8.344;2023-04-26T05:50:00;94263.25;;;4.85;77.26
37972;BME280;23794;48.234;8.344;2023-04-26T05:52:26;94264.75;;;4.82;77.65
37972;BME280;23794;48.234;8.344;2023-04-26T05:54:53;94272.91;;;5.06;77.10
37972;BME280;23794;48.234;8.344;2023-04-26T05:57:20;94268.97;;;5.26;76.59
37972;BME280;23794;48.234;8.344;2023-04-26T05:59:47;94275.78;;;5.43;76.30
37972;BME280;23794;48.234;8.344;2023-04-26T06:02:15;94275.59;;;5.56;75.62
37972;BME280;23794;48.234;8.344;2023-04-26T06:04:41;94279.63;;;5.65;75.51
37972;BME280;23794;48.234;8.344;2023-04-26T06:07:11;94282.44;;;5.73;75.17
37972;BME280;23794;48.234;8.344;2023-04-26T06:09:38;94290.31;;;5.81;75.39
37972;BME280;23794;48.234;8.344;2023-04-26T06:12:05;94290.44;;;5.92;75.09
37972;BME280;23794;48.234;8.344;2023-04-26T06:14:35;94297.50;;;5.97;74.55
37972;BME280;23794;48.234;8.344;2023-04-26T06:17:06;94293.25;;;6.00;74.36
37972;BME280;23794;48.234;8.344;2023-04-26T06:19:32;94290.09;;;5.94;74.26
37972;BME280;23794;48.234;8.344;2023-04-26T06:21:59;94298.72;;;5.73;73.48
37972;BME280;23794;48.234;8.344;2023-04-26T06:24:26;94292.56;;;5.76;73.84
37972;BME280;23794;48.234;8.344;2023-04-26T06:26:53;94295.47;;;5.90;74.45
37972;BME280;23794;48.234;8.344;2023-04-26T06:29:20;94289.84;;;6.06;74.29
37972;BME280;23794;48.234;8.344;2023-04-26T06:31:47;94285.66;;;6.12;72.95
37972;BME280;23794;48.234;8.344;2023-04-26T06:34:14;94286.88;;;6.19;71.98
37972;BME280;23794;48.234;8.344;2023-04-26T06:36:41;94284.56;;;6.21;72.53
37972;BME280;23794;48.234;8.344;2023-04-26T06:39:08;94281.91;;;6.24;72.58
37972;BME280;23794;48.234;8.344;2023-04-26T06:41:36;94279.38;;;6.42;72.87
37972;BME280;23794;48.234;8.344;2023-04-26T06:44:08;94280.25;;;6.50;72.28
37972;BME280;23794;48.234;8.344;2023-04-26T06:46:47;94285.41;;;6.63;71.95
37972;BME280;23794;48.234;8.344;2023-04-26T06:49:19;94288.25;;;6.73;71.61
37972;BME280;23794;48.234;8.344;2023-04-26T06:51:46;94282.00;;;6.69;70.60
37972;BME280;23794;48.234;8.344;2023-04-26T06:54:12;94278.97;;;6.78;69.46
37972;BME280;23794;48.234;8.344;2023-04-26T06:56:39;94280.94;;;6.43;69.14
37972;BME280;23794;48.234;8.344;2023-04-26T06:59:06;94281.94;;;6.28;67.94
37972;BME280;23794;48.234;8.344;2023-04-26T07:01:34;94274.72;;;6.09;69.59
37972;BME280;23794;48.234;8.344;2023-04-26T07:04:02;94283.94;;;6.01;70.28
37972;BME280;23794;48.234;8.344;2023-04-26T07:06:30;94277.41;;;6.05;71.75
37972;BME280;23794;48.234;8.344;2023-04-26T07:09:00;94276.03;;;6.22;71.23
37972;BME280;23794;48.234;8.344;2023-04-26T07:11:28;94270.41;;;6.38;71.54
37972;BME280;23794;48.234;8.344;2023-04-26T07:13:54;94265.03;;;6.45;69.66
37972;BME280;23794;48.234;8.344;2023-04-26T07:16:22;94258.72;;;6.75;69.70
37972;BME280;23794;48.234;8.344;2023-04-26T07:18:49;94262.09;;;7.06;68.42
37972;BME280;23794;48.234;8.344;2023-04-26T07:21:15;94261.53;;;7.38;66.67
37972;BME280;23794;48.234;8.344;2023-04-26T07:23:42;94263.06;;;7.32;64.24
37972;BME280;23794;48.234;8.344;2023-04-26T07:26:11;94264.34;;;7.46;66.04
37972;BME280;23794;48.234;8.344;2023-04-26T07:28:38;94260.53;;;7.61;66.38
37972;BME280;23794;48.234;8.344;2023-04-26T07:31:04;94266.16;;;7.31;66.33
37972;BME280;23794;48.234;8.344;2023-04-26T07:33:34;94262.66;;;7.27;67.80
37972;BME280;23794;48.234;8.344;2023-04-26T07:36:01;94263.06;;;7.32;67.24
37972;BME280;23794;48.234;8.344;2023-04-26T07:38:28;94262.22;;;7.21;66.44
37972;BME280;23794;48.234;8.344;2023-04-26T07:40:54;94264.59;;;7.30;65.79
37972;BME280;23794;48.234;8.344;2023-04-26T07:43:22;94269.38;;;7.44;64.80
37972;BME280;23794;48.234;8.344;2023-04-26T07:45:48;94267.59;;;7.66;65.46
37972;BME280;23794;48.234;8.344;2023-04-26T07:48:15;94263.91;;;8.10;64.35
37972;BME280;23794;48.234;8.344;2023-04-26T07:50:42;94256.91;;;8.09;63.01
37972;BME280;23794;48.234;8.344;2023-04-26T07:53:08;94265.41;;;7.97;61.07
37972;BME280;23794;48.234;8.344;2023-04-26T07:55:35;94264.56;;;7.78;61.35
37972;BME280;23794;48.234;8.344;2023-04-26T07:58:03;94260.19;;;7.66;62.67
37972;BME280;23794;48.234;8.344;2023-04-26T08:00:29;94266.94;;;7.91;61.85
37972;BME280;23794;48.234;8.344;2023-04-26T08:02:56;94269.38;;;8.10;62.55
37972;BME280;23794;48.234;8.344;2023-04-26T08:05:23;94258.81;;;8.01;62.48
37972;BME280;23794;48.234;8.344;2023-04-26T08:07:50;94261.91;;;7.93;62.46
37972;BME280;23794;48.234;8.344;2023-04-26T08:10:17;94260.41;;;8.10;63.12
37972;BME280;23794;48.234;8.344;2023-04-26T08:12:43;94262.00;;;8.14;63.24
37972;BME280;23794;48.234;8.344;2023-04-26T08:15:10;94268.59;;;8.06;62.47
37972;BME280;23794;48.234;8.344;2023-04-26T08:17:37;94268.50;;;7.92;63.65
37972;BME280;23794;48.234;8.344;2023-04-26T08:20:04;94275.81;;;7.73;61.88
37972;BME280;23794;48.234;8.344;2023-04-26T08:22:35;94277.06;;;7.31;62.93
37972;BME280;23794;48.234;8.344;2023-04-26T08:25:02;94275.81;;;7.17;63.20
37972;BME280;23794;48.234;8.344;2023-04-26T08:27:29;94280.44;;;7.17;63.65
37972;BME280;23794;48.234;8.344;2023-04-26T08:29:57;94277.75;;;7.20;62.61
37972;BME280;23794;48.234;8.344;2023-04-26T08:32:23;94278.47;;;7.62;62.64
37972;BME280;23794;48.234;8.344;2023-04-26T08:34:50;94270.56;;;8.13;60.28
37972;BME280;23794;48.234;8.344;2023-04-26T08:37:17;94273.44;;;8.60;62.06
37972;BME280;23794;48.234;8.344;2023-04-26T08:39:43;94271.56;;;9.18;59.75
37972;BME280;23794;48.234;8.344;2023-04-26T08:42:15;94271.16;;;8.76;59.71
37972;BME280;23794;48.234;8.344;2023-04-26T08:44:42;94270.72;;;8.56;60.08
37972;BME280;23794;48.234;8.344;2023-04-26T08:47:15;94274.63;;;8.62;62.53
37972;BME280;23794;48.234;8.344;2023-04-26T08:49:45;94275.84;;;9.05;61.57
37972;BME280;23794;48.234;8.344;2023-04-26T08:52:18;94270.00;;;9.13;57.49
37972;BME280;23794;48.234;8.344;2023-04-26T08:54:50;94264.94;;;9.12;58.85
37972;BME280;23794;48.234;8.344;2023-04-26T08:57:18;94270.78;;;8.96;58.34
37972;BME280;23794;48.234;8.344;2023-04-26T08:59:46;94271.50;;;8.64;59.27
37972;BME280;23794;48.234;8.344;2023-04-26T09:02:16;94273.25;;;8.02;62.44
37972;BME280;23794;48.234;8.344;2023-04-26T09:04:45;94270.78;;;7.82;64.26
37972;BME280;23794;48.234;8.344;2023-04-26T09:07:43;94271.97;;;7.81;64.61
37972;BME280;23794;48.234;8.344;2023-04-26T09:10:11;94272.56;;;8.27;65.18
37972;BME280;23794;48.234;8.344;2023-04-26T09:12:38;94262.53;;;8.63;64.60
37972;BME280;23794;48.234;8.344;2023-04-26T09:15:06;94264.88;;;8.68;60.62
37972;BME280;23794;48.234;8.344;2023-04-26T09:17:34;94266.09;;;8.89;60.56
37972;BME280;23794;48.234;8.344;2023-04-26T09:23:03;94253.16;;;9.94;54.89
37972;BME280;23794;48.234;8.344;2023-04-26T09:25:31;94254.31;;;9.97;56.46
37972;BME280;23794;48.234;8.344;2023-04-26T09:27:59;94253.06;;;10.20;53.19
37972;BME280;23794;48.234;8.344;2023-04-26T09:30:27;94254.66;;;10.10;54.00
37972;BME280;23794;48.234;8.344;2023-04-26T09:32:59;94253.50;;;10.00;54.09
37972;BME280;23794;48.234;8.344;2023-04-26T09:35:36;94258.25;;;9.85;55.10
37972;BME280;23794;48.234;8.344;2023-04-26T09:38:04;94249.94;;;10.14;56.44
37972;BME280;23794;48.234;8.344;2023-04-26T09:40:45;94248.97;;;10.53;53.16
37972;BME280;23794;48.234;8.344;2023-04-26T09:43:16;94239.09;;;10.70;52.19
37972;BME280;23794;48.234;8.344;2023-04-26T09:45:50;94241.22;;;10.41;54.20
37972;BME280;23794;48.234;8.344;2023-04-26T09:50:53;94242.78;;;10.38;55.20
37972;BME280;23794;48.234;8.344;2023-04-26T09:53:47;94245.53;;;10.38;53.30
37972;BME280;23794;48.234;8.344;2023-04-26T09:56:16;94241.25;;;10.30;53.86
37972;BME280;23794;48.234;8.344;2023-04-26T09:58:56;94244.81;;;10.23;55.96
37972;BME280;23794;48.234;8.344;2023-04-26T10:01:28;94242.91;;;10.09;55.67
37972;BME280;23794;48.234;8.344;2023-04-26T10:03:56;94246.03;;;10.15;55.11
37972;BME280;23794;48.234;8.344;2023-04-26T10:06:23;94236.16;;;10.36;57.23
37972;BME280;23794;48.234;8.344;2023-04-26T10:08:50;94230.50;;;10.68;54.12
37972;BME280;23794;48.234;8.344;2023-04-26T10:11:17;94227.59;;;10.94;52.17
37972;BME280;23794;48.234;8.344;2023-04-26T10:13:44;94221.22;;;11.11;52.28
37972;BME280;23794;48.234;8.344;2023-04-26T10:16:10;94227.06;;;11.17;51.93
37972;BME280;23794;48.234;8.344;2023-04-26T10:18:37;94228.97;;;11.20;50.26
37972;BME280;23794;48.234;8.344;2023-04-26T10:21:07;94231.50;;;10.96;50.41
37972;BME280;23794;48.234;8.344;2023-04-26T10:23:36;94233.00;;;11.08;51.83
37972;BME280;23794;48.234;8.344;2023-04-26T10:26:03;94227.72;;;10.76;50.43
37972;BME280;23794;48.234;8.344;2023-04-26T10:31:06;94230.28;;;10.34;55.07
37972;BME280;23794;48.234;8.344;2023-04-26T10:33:33;94232.75;;;10.14;52.81
37972;BME280;23794;48.234;8.344;2023-04-26T10:36:13;94231.13;;;10.23;53.81
37972;BME280;23794;48.234;8.344;2023-04-26T10:39:18;94222.03;;;10.45;52.56
37972;BME280;23794;48.234;8.344;2023-04-26T10:41:47;94221.97;;;10.52;53.64
37972;BME280;23794;48.234;8.344;2023-04-26T10:46:59;94209.56;;;10.36;53.90
37972;BME280;23794;48.234;8.344;2023-04-26T10:49:25;94209.97;;;10.31;53.92
37972;BME280;23794;48.234;8.344;2023-04-26T10:52:11;94208.69;;;10.50;55.63
37972;BME280;23794;48.234;8.344;2023-04-26T10:54:45;94210.13;;;10.73;52.91
37972;BME280;23794;48.234;8.344;2023-04-26T10:57:13;94218.38;;;10.66;53.14
37972;BME280;23794;48.234;8.344;2023-04-26T10:59:39;94219.31;;;10.41;53.38
37972;BME280;23794;48.234;8.344;2023-04-26T11:08:17;94200.53;;;10.39;54.03
37972;BME280;23794;48.234;8.344;2023-04-26T11:10:49;94194.41;;;10.81;53.55
37972;BME280;23794;48.234;8.344;2023-04-26T11:13:17;94189.41;;;10.68;53.49
37972;BME280;23794;48.234;8.344;2023-04-26T11:15:51;94193.63;;;10.80;51.79
37972;BME280;23794;48.234;8.344;2023-04-26T11:18:19;94196.53;;;10.58;51.72
37972;BME280;23794;48.234;8.344;2023-04-26T11:20:48;94192.50;;;10.74;53.29
37972;BME280;23794;48.234;8.344;2023-04-26T11:23:17;94193.13;;;11.00;51.25
37972;BME280;23794;48.234;8.344;2023-04-26T11:25:45;94181.81;;;10.91;52.46
37972;BME280;23794;48.234;8.344;2023-04-26T11:28:12;94176.66;;;11.03;51.11
37972;BME280;23794;48.234;8.344;2023-04-26T11:30:39;94177.75;;;11.13;49.75
37972;BME280;23794;48.234;8.344;2023-04-26T11:33:15;94179.50;;;10.89;50.32
37972;BME280;23794;48.234;8.344;2023-04-26T11:35:43;94179.88;;;10.87;52.46
37972;BME280;23794;48.234;8.344;2023-04-26T11:38:12;94181.00;;;10.97;50.99
37972;BME280;23794;48.234;8.344;2023-04-26T11:40:39;94178.75;;;11.30;50.68
37972;BME280;23794;48.234;8.344;2023-04-26T11:43:06;94178.72;;;11.72;51.59
37972;BME280;23794;48.234;8.344;2023-04-26T11:45:35;94176.03;;;12.03;48.38
37972;BME280;23794;48.234;8.344;2023-04-26T11:48:06;94159.94;;;12.05;48.74
37972;BME280;23794;48.234;8.344;2023-04-26T11:50:35;94168.78;;;12.16;48.89
37972;BME280;23794;48.234;8.344;2023-04-26T11:53:07;94171.72;;;12.33;49.13
37972;BME280;23794;48.234;8.344;2023-04-26T11:55:38;94170.47;;;12.69;47.22
37972;BME280;23794;48.234;8.344;2023-04-26T11:58:13;94178.13;;;12.54;47.30
37972;BME280;23794;48.234;8.344;2023-04-26T12:00:57;94177.97;;;12.65;45.48
37972;BME280;23794;48.234;8.344;2023-04-26T12:03:31;94173.59;;;12.71;45.43
37972;BME280;23794;48.234;8.344;2023-04-26T12:06:02;94178.44;;;12.87;45.72
37972;BME280;23794;48.234;8.344;2023-04-26T12:08:31;94170.53;;;13.60;46.82
37972;BME280;23794;48.234;8.344;2023-04-26T12:11:00;94162.69;;;13.58;43.90
37972;BME280;23794;48.234;8.344;2023-04-26T12:13:30;94169.53;;;13.26;43.18
37972;BME280;23794;48.234;8.344;2023-04-26T12:15:57;94159.09;;;13.41;44.25
37972;BME280;23794;48.234;8.344;2023-04-26T12:18:31;94152.34;;;13.66;43.58
37972;BME280;23794;48.234;8.344;2023-04-26T12:20:58;94162.88;;;13.71;40.21
37972;BME280;23794;48.234;8.344;2023-04-26T12:23:25;94146.47;;;13.64;44.01
37972;BME280;23794;48.234;8.344;2023-04-26T12:25:55;94151.03;;;13.74;42.15
37972;BME280;23794;48.234;8.344;2023-04-26T12:28:22;94139.28;;;14.11;40.73
37972;BME280;23794;48.234;8.344;2023-04-26T12:30:50;94135.81;;;14.63;40.51
37972;BME280;23794;48.234;8.344;2023-04-26T12:33:17;94139.03;;;15.11;41.42
37972;BME280;23794;48.234;8.344;2023-04-26T12:35:49;94140.59;;;15.58;41.61
37972;BME280;23794;48.234;8.344;2023-04-26T12:38:17;94132.31;;;14.96;39.13
37972;BME280;23794;48.234;8.344;2023-04-26T12:40:44;94141.09;;;15.07;40.36
37972;BME280;23794;48.234;8.344;2023-04-26T12:43:11;94136.94;;;14.99;41.62
37972;BME280;23794;48.234;8.344;2023-04-26T12:45:38;94137.78;;;15.29;40.73
37972;BME280;23794;48.234;8.344;2023-04-26T12:48:05;94136.94;;;15.32;41.31
37972;BME280;23794;48.234;8.344;2023-04-26T12:50:32;94134.97;;;14.99;40.72
37972;BME280;23794;48.234;8.344;2023-04-26T12:52:59;94140.41;;;14.87;41.67
37972;BME280;23794;48.234;8.344;2023-04-26T12:55:25;94138.50;;;15.16;40.15
37972;BME280;23794;48.234;8.344;2023-04-26T12:57:52;94128.41;;;15.10;39.81
37972;BME280;23794;48.234;8.344;2023-04-26T13:00:19;94132.28;;;14.26;39.10
37972;BME280;23794;48.234;8.344;2023-04-26T13:02:47;94122.38;;;14.82;39.71
37972;BME280;23794;48.234;8.344;2023-04-26T13:05:14;94125.19;;;15.28;39.44
37972;BME280;23794;48.234;8.344;2023-04-26T13:07:42;94134.25;;;15.28;41.48
37972;BME280;23794;48.234;8.344;2023-04-26T13:10:09;94126.22;;;14.68;40.29
37972;BME280;23794;48.234;8.344;2023-04-26T13:12:38;94133.75;;;13.94;41.02
37972;BME280;23794;48.234;8.344;2023-04-26T13:15:06;94131.44;;;14.09;41.12
37972;BME280;23794;48.234;8.344;2023-04-26T13:17:34;94117.38;;;14.24;41.31
37972;BME280;23794;48.234;8.344;2023-04-26T13:20:03;94121.22;;;14.10;40.48
37972;BME280;23794;48.234;8.344;2023-04-26T13:22:29;94120.66;;;13.98;40.79
37972;BME280;23794;48.234;8.344;2023-04-26T13:24:56;94126.25;;;13.95;42.21
37972;BME280;23794;48.234;8.344;2023-04-26T13:27:23;94124.22;;;13.99;42.57
37972;BME280;23794;48.234;8.344;2023-04-26T13:29:50;94132.66;;;14.08;39.92